Time;durP1;ratioP1;P1;durP2;ratioP2;P2;SDS_P1;SDS_P2;PMS_P1;PMS_P2;Temp;Humidity;BMP_temperature;BMP_pressure;BME280_temperature;BME280_humidity;BME280_pressure;Samples;Min_cycle;Max_cycle;Signal;HPM_P1;HPM_P2
2023/10/14 00:00:27;;;;;;;6.90;4.77;;;;;;;11.52;100.00;95917.53;4896034;28;104457;-77
2023/10/14 00:03:01;;;;;;;8.13;4.73;;;;;;;11.30;100.00;95914.31;4899619;28;101970;-77
2023/10/14 00:05:28;;;;;;;6.23;4.70;;;;;;;11.43;100.00;95927.09;4911803;28;105239;-77
2023/10/14 00:07:55;;;;;;;7.40;5.13;;;;;;;11.70;100.00;95915.13;4896476;28;101939;-77
2023/10/14 00:10:22;;;;;;;9.30;5.13;;;;;;;11.87;100.00;95912.16;4912191;28;104222;-77
2023/10/14 00:12:53;;;;;;;11.47;5.40;;;;;;;12.21;100.00;95910.50;4895322;28;105158;-77
2023/10/14 00:15:20;;;;;;;7.50;5.53;;;;;;;12.53;100.00;95913.59;4895057;28;102232;-77
2023/10/14 00:17:49;;;;;;;8.00;5.07;;;;;;;12.67;100.00;95917.22;4917111;28;105787;-77
2023/10/14 00:20:18;;;;;;;11.07;5.50;;;;;;;12.87;100.00;95911.78;4929893;28;105629;-76
2023/10/14 00:22:45;;;;;;;11.07;5.30;;;;;;;12.87;100.00;95919.81;4913807;28;101772;-76
2023/10/14 00:25:19;;;;;;;10.93;5.50;;;;;;;12.91;100.00;95916.28;4933163;28;105204;-75
2023/10/14 00:27:47;;;;;;;10.03;5.60;;;;;;;13.24;100.00;95920.91;4930126;28;101906;-75
2023/10/14 00:30:19;;;;;;;6.30;4.87;;;;;;;13.30;100.00;95919.03;4929760;28;104813;-75
2023/10/14 00:32:47;;;;;;;7.67;4.87;;;;;;;13.47;100.00;95914.06;4928538;28;105436;-75
2023/10/14 00:35:20;;;;;;;6.70;4.97;;;;;;;13.50;100.00;95913.50;4928626;28;102046;-75
2023/10/14 00:37:52;;;;;;;8.67;4.50;;;;;;;13.79;100.00;95909.00;4928851;28;103896;-75
2023/10/14 00:40:28;;;;;;;6.37;4.70;;;;;;;14.04;100.00;95900.72;4929170;28;103101;-75
2023/10/14 00:43:07;;;;;;;8.03;4.80;;;;;;;13.96;100.00;95904.78;4930100;28;102007;-75
2023/10/14 00:45:43;;;;;;;9.30;4.50;;;;;;;13.91;100.00;95899.50;4928953;28;104890;-75
2023/10/14 00:48:27;;;;;;;7.20;4.43;;;;;;;13.84;100.00;95891.03;4932670;28;105926;-76
2023/10/14 00:51:04;;;;;;;8.73;5.40;;;;;;;13.66;100.00;95885.59;4931410;28;102503;-76
2023/10/14 01:08:00;;;;;;;8.37;4.37;;;;;;;13.06;100.00;95875.41;4867955;28;101920;-77
2023/10/14 01:10:28;;;;;;;4.47;3.97;;;;;;;12.90;100.00;95871.19;4855596;28;105756;-77
2023/10/14 01:12:56;;;;;;;6.63;4.57;;;;;;;12.73;100.00;95857.44;4854495;28;105105;-77
2023/10/14 01:15:23;;;;;;;5.23;3.80;;;;;;;12.52;100.00;95863.97;4858557;28;101957;-77
2023/10/14 01:17:53;;;;;;;5.27;3.80;;;;;;;12.27;100.00;95856.09;4854420;28;105543;-77
2023/10/14 01:20:36;;;;;;;6.87;4.53;;;;;;;11.99;100.00;95849.53;4855241;28;102134;-77
2023/10/14 01:23:07;;;;;;;6.67;4.00;;;;;;;11.97;100.00;95845.53;4855552;28;105658;-77
2023/10/14 01:25:41;;;;;;;5.13;3.97;;;;;;;11.72;100.00;95843.75;4854575;28;105454;-77
2023/10/14 01:28:12;;;;;;;6.17;4.00;;;;;;;11.62;100.00;95843.75;4855168;28;102003;-77
2023/10/14 01:30:50;;;;;;;4.30;3.90;;;;;;;11.79;100.00;95833.63;4855339;28;104959;-77
2023/10/14 01:33:24;;;;;;;5.33;4.53;;;;;;;11.80;100.00;95840.53;4874391;28;105632;-77
2023/10/14 01:35:52;;;;;;;6.53;4.23;;;;;;;11.67;100.00;95830.44;4934409;28;101989;-78
2023/10/14 01:38:23;;;;;;;9.27;4.93;;;;;;;11.69;100.00;95838.97;4932356;28;105404;-77
2023/10/14 01:40:50;;;;;;;7.27;4.23;;;;;;;11.44;100.00;95836.31;4932739;28;102330;-76
2023/10/14 01:43:24;;;;;;;4.80;4.27;;;;;;;11.57;100.00;95833.13;4932836;28;104516;-76
2023/10/14 01:46:00;;;;;;;5.70;4.30;;;;;;;11.36;100.00;95836.88;4932252;28;105494;-76
2023/10/14 01:48:30;;;;;;;7.20;4.23;;;;;;;11.31;100.00;95838.72;4932787;28;101898;-75
2023/10/14 01:50:59;;;;;;;6.07;4.40;;;;;;;11.40;100.00;95840.56;4932891;28;105713;-75
2023/10/14 01:53:28;;;;;;;10.27;4.87;;;;;;;11.38;100.00;95840.06;4931870;28;105940;-75
2023/10/14 01:55:58;;;;;;;8.13;4.30;;;;;;;11.27;100.00;95835.00;4932315;28;101907;-75
2023/10/14 01:58:30;;;;;;;6.53;4.30;;;;;;;10.99;100.00;95843.53;4935317;28;104810;-75
2023/10/14 02:01:04;;;;;;;7.30;4.63;;;;;;;11.07;100.00;95841.13;4932614;28;101873;-76
2023/10/14 02:03:35;;;;;;;5.90;4.60;;;;;;;11.20;100.00;95839.81;4932381;28;105090;-77
2023/10/14 02:06:10;;;;;;;5.77;4.30;;;;;;;11.12;100.00;95824.38;4932023;28;105218;-77
2023/10/14 02:08:39;;;;;;;6.10;4.50;;;;;;;11.18;100.00;95821.44;4932396;28;102415;-77
2023/10/14 02:11:06;;;;;;;7.70;4.87;;;;;;;11.20;100.00;95829.97;4932106;28;105168;-77
2023/10/14 02:14:36;;;;;;;7.30;4.47;;;;;;;11.04;100.00;95828.38;4931649;28;105353;-77
2023/10/14 02:28:07;;;;;;;6.90;4.40;;;;;;;10.88;100.00;95815.31;4865381;28;103881;-79
2023/10/14 02:30:38;;;;;;;6.43;4.43;;;;;;;10.90;100.00;95815.88;4931641;28;104127;-79
2023/10/14 02:33:07;;;;;;;6.33;4.40;;;;;;;10.95;100.00;95827.31;4932040;28;101877;-79
2023/10/14 02:35:34;;;;;;;6.47;4.53;;;;;;;10.90;100.00;95819.31;4932078;28;105235;-75
2023/10/14 02:38:04;;;;;;;5.20;4.43;;;;;;;10.97;100.00;95819.06;4931419;28;105483;-75
2023/10/14 02:40:30;;;;;;;5.10;4.40;;;;;;;10.96;100.00;95822.78;4932026;28;101926;-75
2023/10/14 02:42:59;;;;;;;4.90;4.50;;;;;;;11.05;100.00;95814.00;4932027;28;104938;-75
2023/10/14 02:45:33;;;;;;;5.77;4.90;;;;;;;10.91;100.00;95828.09;4931371;28;105247;-75
2023/10/14 02:48:02;;;;;;;5.70;5.00;;;;;;;10.90;100.00;95823.84;4935182;28;101796;-75
2023/10/14 02:50:31;;;;;;;7.37;4.70;;;;;;;11.00;100.00;95826.50;4930950;28;105029;-75
2023/10/14 02:53:06;;;;;;;5.63;4.73;;;;;;;11.06;100.00;95820.13;4931706;28;101986;-75
2023/10/14 02:56:43;;;;;;;;;;;;;;;;;;;;;
2023/10/14 02:59:47;;;;;;;8.63;5.33;;;;;;;10.76;100.00;95831.56;4932428;28;102360;-75
2023/10/14 03:02:25;;;;;;;9.33;5.37;;;;;;;10.88;100.00;95842.72;4931684;28;101959;-75
2023/10/14 03:05:08;;;;;;;6.57;5.10;;;;;;;10.78;100.00;95839.25;4931578;28;105416;-75
2023/10/14 03:07:44;;;;;;;5.87;4.63;;;;;;;10.86;100.00;95836.09;4932319;28;102853;-75
2023/10/14 03:10:12;;;;;;;7.37;4.97;;;;;;;10.94;100.00;95836.34;4931445;28;101911;-75
2023/10/14 03:12:40;;;;;;;6.27;5.00;;;;;;;11.04;100.00;95833.69;4934016;28;104910;-75
2023/10/14 03:15:18;;;;;;;7.90;5.20;;;;;;;11.00;100.00;95829.16;4931290;28;102262;-75
2023/10/14 03:17:52;;;;;;;10.33;5.40;;;;;;;11.03;100.00;95839.28;4930692;28;105628;-75
2023/10/14 03:23:19;;;;;;;7.10;5.07;;;;;;;10.94;100.00;95840.84;4928692;28;102116;-75
2023/10/14 03:29:36;;;;;;;10.33;5.20;;;;;;;10.76;100.00;95850.19;4916929;28;102311;-75
2023/10/14 03:32:04;;;;;;;8.23;5.03;;;;;;;10.85;100.00;95853.88;4930954;28;102064;-75
2023/10/14 03:34:32;;;;;;;6.40;4.90;;;;;;;11.02;100.00;95843.00;4931145;28;105456;-75
2023/10/14 03:37:03;;;;;;;7.10;5.00;;;;;;;11.01;100.00;95857.38;4933641;28;105809;-75
2023/10/14 03:39:46;;;;;;;9.07;5.40;;;;;;;11.00;100.00;95869.06;4930965;28;105535;-75
2023/10/14 03:42:15;;;;;;;6.70;4.80;;;;;;;11.07;100.00;95866.94;4930367;28;105065;-75
2023/10/14 03:48:48;;;;;;;6.67;5.47;;;;;;;11.21;100.00;95849.38;4868181;28;102526;-75
2023/10/14 03:51:24;;;;;;;7.33;5.60;;;;;;;11.13;100.00;95857.91;4915243;28;104561;-75
2023/10/14 03:53:52;;;;;;;8.90;5.27;;;;;;;11.27;100.00;95861.63;4932261;28;102058;-75
2023/10/14 03:56:25;;;;;;;6.67;5.60;;;;;;;11.78;100.00;95841.88;4930587;28;105248;-75
2023/10/14 03:58:55;;;;;;;8.17;5.90;;;;;;;11.94;100.00;95851.44;4933033;28;105391;-75
2023/10/14 04:01:29;;;;;;;8.50;5.60;;;;;;;12.04;100.00;95857.50;4930899;28;105205;-75
2023/10/14 04:04:14;;;;;;;9.20;6.00;;;;;;;12.35;100.00;95848.31;4930017;28;105501;-75
2023/10/14 04:06:52;;;;;;;9.47;5.23;;;;;;;12.55;100.00;95858.09;4930584;28;101923;-80
2023/10/14 04:09:24;;;;;;;7.43;5.67;;;;;;;12.61;100.00;95852.47;4930788;28;105221;-77
2023/10/14 04:11:52;;;;;;;8.83;5.50;;;;;;;12.72;100.00;95853.19;4929936;28;105145;-76
2023/10/14 04:14:22;;;;;;;8.43;5.23;;;;;;;12.78;100.00;95852.06;4930296;28;102010;-76
2023/10/14 04:20:46;;;;;;;9.73;5.33;;;;;;;12.34;100.00;95849.41;4749572;29;104402;-76
2023/10/14 04:23:28;;;;;;;8.13;5.20;;;;;;;12.76;100.00;95851.56;4827984;29;101978;-75
2023/10/14 04:26:03;;;;;;;7.10;5.60;;;;;;;12.63;100.00;95847.63;4942348;28;104407;-75
2023/10/14 04:28:39;;;;;;;7.07;5.27;;;;;;;12.75;100.00;95836.63;4930393;28;102018;-74
2023/10/14 04:31:09;;;;;;;6.20;4.57;;;;;;;12.68;100.00;95841.47;4930470;28;105267;-74
2023/10/14 04:33:44;;;;;;;6.43;5.33;;;;;;;12.91;100.00;95843.47;4929870;28;105078;-76
2023/10/14 04:39:11;;;;;;;7.17;5.17;;;;;;;13.51;100.00;95853.69;4930379;28;105308;-77
2023/10/14 04:41:45;;;;;;;8.60;5.37;;;;;;;13.74;100.00;95852.91;4931937;28;102832;-77
2023/10/14 04:44:13;;;;;;;7.43;5.10;;;;;;;13.80;100.00;95862.47;4947495;28;101782;-76
2023/10/14 04:46:54;;;;;;;6.03;4.97;;;;;;;13.84;100.00;95855.50;4933943;28;102795;-76
2023/10/14 04:49:35;;;;;;;7.30;5.37;;;;;;;13.97;100.00;95852.94;4930932;28;101842;-76
2023/10/14 04:52:04;;;;;;;6.63;5.40;;;;;;;14.23;100.00;95859.59;4930766;28;105467;-75
2023/10/14 04:54:35;;;;;;;8.90;5.33;;;;;;;14.12;100.00;95849.31;4930408;28;105108;-75
2023/10/14 04:57:19;;;;;;;7.03;4.47;;;;;;;14.05;100.00;95848.81;4930734;28;101914;-75
2023/10/14 04:59:53;;;;;;;7.70;4.80;;;;;;;13.97;100.00;95846.78;4930766;28;105797;-75
2023/10/14 05:02:30;;;;;;;9.40;4.53;;;;;;;13.75;100.00;95835.81;4930297;28;105569;-75
2023/10/14 05:04:59;;;;;;;9.30;4.40;;;;;;;13.58;100.00;95832.78;4930727;28;102331;-75
2023/10/14 05:07:28;;;;;;;5.23;4.73;;;;;;;13.48;100.00;95835.53;4930891;28;105382;-75
2023/10/14 05:09:57;;;;;;;6.70;4.80;;;;;;;13.45;100.00;95836.09;4933617;28;105701;-75
2023/10/14 05:12:26;;;;;;;7.87;4.57;;;;;;;13.38;100.00;95841.78;4934223;28;105176;-75
2023/10/14 05:14:55;;;;;;;5.50;4.73;;;;;;;13.42;100.00;95839.34;4934796;28;103254;-75
2023/10/14 05:17:26;;;;;;;6.97;4.50;;;;;;;13.22;100.00;95842.16;4934076;28;101927;-75
2023/10/14 05:20:16;;;;;;;6.33;4.73;;;;;;;13.10;100.00;95842.53;4935460;28;101818;-75
2023/10/14 05:22:47;;;;;;;8.10;5.60;;;;;;;13.04;100.00;95848.19;4933200;28;104151;-75
2023/10/14 05:25:27;;;;;;;5.93;4.50;;;;;;;13.00;100.00;95855.97;4933959;28;101810;-75
2023/10/14 05:27:58;;;;;;;6.03;5.30;;;;;;;12.86;100.00;95848.84;4933705;28;105099;-75
2023/10/14 05:30:33;;;;;;;7.17;5.70;;;;;;;12.69;100.00;95859.06;4933267;28;105941;-75
2023/10/14 05:33:06;;;;;;;7.30;5.03;;;;;;;12.70;100.00;95850.78;4937244;28;101831;-75
2023/10/14 05:35:38;;;;;;;6.37;5.10;;;;;;;12.65;100.00;95863.38;4933106;28;105314;-75
2023/10/14 05:38:11;;;;;;;6.83;4.70;;;;;;;12.71;100.00;95862.25;4932702;28;102254;-75
2023/10/14 05:40:41;;;;;;;6.97;5.17;;;;;;;12.78;100.00;95873.41;4932595;28;105289;-75
2023/10/14 05:43:08;;;;;;;8.30;4.80;;;;;;;12.86;100.00;95864.84;4932006;28;105338;-75
2023/10/14 05:45:36;;;;;;;7.87;5.50;;;;;;;12.91;100.00;95862.16;4932854;28;102015;-75
2023/10/14 05:48:04;;;;;;;6.50;5.60;;;;;;;12.98;100.00;95868.00;4932613;28;105753;-75
2023/10/14 05:50:31;;;;;;;7.40;5.40;;;;;;;13.08;100.00;95863.38;4933375;28;103298;-75
2023/10/14 05:52:59;;;;;;;6.77;4.87;;;;;;;13.25;100.00;95861.09;4932724;28;102017;-77
2023/10/14 05:55:29;;;;;;;6.77;5.20;;;;;;;13.82;100.00;95857.63;4935429;28;105087;-77
2023/10/14 05:58:00;;;;;;;9.00;5.23;;;;;;;13.93;100.00;95862.59;4932570;28;101930;-77
2023/10/14 06:00:27;;;;;;;6.67;4.90;;;;;;;13.95;100.00;95868.44;4932678;28;104381;-77
2023/10/14 06:02:56;;;;;;;8.73;4.93;;;;;;;14.53;100.00;95867.28;4932065;28;105408;-77
2023/10/14 06:05:24;;;;;;;8.50;4.70;;;;;;;14.50;100.00;95867.06;4932632;28;101879;-77
2023/10/14 06:07:59;;;;;;;8.43;4.80;;;;;;;14.69;100.00;95857.97;4933633;28;102563;-77
2023/10/14 06:10:29;;;;;;;8.97;4.80;;;;;;;14.83;100.00;95879.44;4931853;28;105034;-77
2023/10/14 06:12:58;;;;;;;9.57;5.17;;;;;;;14.92;100.00;95883.06;4932090;28;102183;-77
2023/10/14 06:15:25;;;;;;;10.00;5.33;;;;;;;15.32;100.00;95871.75;4935051;28;105169;-77
2023/10/14 06:17:54;;;;;;;9.77;5.30;;;;;;;15.75;100.00;95881.25;4931927;28;102005;-77
2023/10/14 06:20:23;;;;;;;9.13;5.10;;;;;;;15.31;100.00;95872.84;4932194;28;104011;-77
2023/10/14 06:22:56;;;;;;;6.47;4.70;;;;;;;15.42;100.00;95885.03;4931186;28;103918;-77
2023/10/14 06:25:24;;;;;;;6.17;4.60;;;;;;;15.49;100.00;95882.75;4931825;28;101962;-77
2023/10/14 06:27:51;;;;;;;7.67;5.07;;;;;;;15.36;100.00;95897.69;4932286;28;105234;-77
2023/10/14 06:30:21;;;;;;;6.63;4.73;;;;;;;15.53;100.00;95887.22;4932697;28;102845;-77
2023/10/14 06:32:52;;;;;;;7.00;4.63;;;;;;;15.67;100.00;95873.88;4932138;28;102033;-77
2023/10/14 06:35:19;;;;;;;7.20;4.50;;;;;;;16.15;100.00;95880.50;4932052;28;103882;-77
2023/10/14 06:37:48;;;;;;;6.93;4.87;;;;;;;16.23;100.00;95885.16;4934699;28;104337;-77
2023/10/14 06:40:18;;;;;;;7.90;4.90;;;;;;;16.60;100.00;95879.63;4931899;28;103130;-77
2023/10/14 06:42:49;;;;;;;6.00;4.23;;;;;;;16.34;100.00;95868.59;4931408;28;105837;-77
2023/10/14 06:45:22;;;;;;;7.23;4.60;;;;;;;16.50;100.00;95877.13;4932040;28;101855;-77
2023/10/14 06:47:57;;;;;;;7.33;4.90;;;;;;;16.21;100.00;95885.47;4932047;28;105389;-77
2023/10/14 06:50:25;;;;;;;6.27;4.70;;;;;;;16.20;100.00;95883.91;4931486;28;105080;-77
2023/10/14 06:52:58;;;;;;;7.47;4.60;;;;;;;16.12;100.00;95887.25;4933008;28;101847;-77
2023/10/14 06:55:27;;;;;;;7.83;4.67;;;;;;;16.10;100.00;95894.00;4931753;28;104168;-77
2023/10/14 06:57:55;;;;;;;6.20;4.27;;;;;;;16.16;100.00;95888.25;4931198;28;105003;-77
2023/10/14 07:00:29;;;;;;;9.17;4.83;;;;;;;16.20;100.00;95899.19;4934950;28;101993;-77
2023/10/14 07:03:00;;;;;;;6.07;4.67;;;;;;;16.32;100.00;95907.53;4931113;28;105168;-77
2023/10/14 07:05:30;;;;;;;5.27;4.37;;;;;;;16.22;100.00;95902.34;4932931;28;101829;-77
2023/10/14 07:07:58;;;;;;;7.73;4.37;;;;;;;16.17;100.00;95911.31;4931475;28;105337;-77
2023/10/14 07:10:32;;;;;;;6.50;4.40;;;;;;;16.36;100.00;95922.72;4930775;28;105774;-77
2023/10/14 07:13:01;;;;;;;8.13;4.77;;;;;;;16.20;100.00;95918.78;4931279;28;101863;-77
2023/10/14 07:15:31;;;;;;;8.97;5.00;;;;;;;16.24;100.00;95916.28;4931556;28;103993;-77
2023/10/14 07:18:01;;;;;;;7.37;4.90;;;;;;;16.24;100.00;95921.66;4930468;28;105351;-77
2023/10/14 07:20:30;;;;;;;7.80;4.60;;;;;;;16.24;100.00;95927.03;4932925;28;102134;-77
2023/10/14 07:22:58;;;;;;;6.50;4.20;;;;;;;16.26;100.00;95925.63;4935413;28;102600;-77
2023/10/14 07:25:25;;;;;;;5.20;4.70;;;;;;;16.35;100.00;95923.84;4932571;28;101849;-77
2023/10/14 07:27:52;;;;;;;7.33;4.07;;;;;;;16.60;100.00;95927.94;4932689;28;102577;-77
2023/10/14 07:30:26;;;;;;;7.03;4.17;;;;;;;16.68;100.00;95922.66;4932107;28;101907;-77
2023/10/14 07:32:53;;;;;;;9.77;4.73;;;;;;;16.66;100.00;95918.69;4930367;28;101844;-77
2023/10/14 07:35:23;;;;;;;7.27;4.50;;;;;;;16.75;100.00;95917.72;4932426;28;102655;-77
2023/10/14 07:37:51;;;;;;;6.37;4.90;;;;;;;16.79;100.00;95920.59;4930395;28;105775;-77
2023/10/14 07:40:30;;;;;;;6.20;4.77;;;;;;;16.80;100.00;95924.84;4932459;28;101900;-77
2023/10/14 07:43:05;;;;;;;5.17;4.30;;;;;;;17.14;100.00;95926.00;4931190;28;105477;-77
2023/10/14 07:45:34;;;;;;;8.93;4.17;;;;;;;17.04;100.00;95925.41;4933828;28;104413;-77
2023/10/14 07:48:08;;;;;;;7.00;4.20;;;;;;;17.15;100.00;95934.84;4931160;28;105427;-77
2023/10/14 07:50:38;;;;;;;6.27;4.60;;;;;;;17.23;100.00;95931.44;4930201;28;105165;-77
2023/10/14 07:53:12;;;;;;;6.33;4.27;;;;;;;17.21;100.00;95930.94;4930795;28;101993;-77
2023/10/14 07:55:42;;;;;;;6.60;4.33;;;;;;;17.18;100.00;95926.19;4931040;28;105232;-77
2023/10/14 07:58:10;;;;;;;7.43;4.43;;;;;;;17.21;100.00;95930.94;4930060;28;105030;-77
2023/10/14 08:00:39;;;;;;;5.97;4.33;;;;;;;17.42;100.00;95929.41;4930769;28;101958;-77
2023/10/14 08:03:09;;;;;;;6.37;4.37;;;;;;;17.34;100.00;95933.59;4930878;28;105654;-77
2023/10/14 08:05:38;;;;;;;6.73;4.17;;;;;;;17.40;100.00;95934.31;4930143;28;105107;-77
2023/10/14 08:08:08;;;;;;;8.50;4.63;;;;;;;17.58;100.00;95933.34;4935048;28;101814;-77
2023/10/14 08:10:36;;;;;;;5.23;4.67;;;;;;;17.30;100.00;95937.19;4931298;28;101823;-77
2023/10/14 08:13:04;;;;;;;8.07;4.43;;;;;;;17.36;100.00;95930.59;4930470;28;102476;-77
2023/10/14 08:15:32;;;;;;;5.73;4.47;;;;;;;17.42;100.00;95937.47;4930771;28;105216;-77
2023/10/14 08:18:00;;;;;;;7.77;4.73;;;;;;;17.50;100.00;95947.53;4929456;28;105411;-77
2023/10/14 08:20:30;;;;;;;5.83;4.20;;;;;;;17.87;100.00;95939.88;4930549;28;101935;-77
2023/10/14 08:23:00;;;;;;;8.53;4.53;;;;;;;17.94;100.00;95942.94;4932228;28;101793;-77
2023/10/14 08:25:30;;;;;;;5.97;4.27;;;;;;;18.04;100.00;95939.22;4929748;28;105137;-77
2023/10/14 08:28:00;;;;;;;5.90;4.40;;;;;;;17.98;100.00;95935.06;4933453;28;101941;-77
2023/10/14 08:30:32;;;;;;;5.77;4.27;;;;;;;18.20;100.00;95935.03;4929810;28;104317;-77
2023/10/14 08:33:01;;;;;;;5.73;4.30;;;;;;;18.40;100.00;95932.63;4931922;28;101778;-78
2023/10/14 08:38:14;;;;;;;4.57;3.60;;;;;;;18.54;100.00;95941.38;4928115;28;105988;-76
2023/10/14 08:40:44;;;;;;;6.10;4.17;;;;;;;18.99;100.00;95950.88;4931262;28;101856;-83
2023/10/14 08:43:16;;;;;;;7.33;3.90;;;;;;;19.46;100.00;95947.31;4930113;28;104695;-78
2023/10/14 08:45:47;;;;;;;5.70;3.57;;;;;;;19.59;100.00;95942.91;4929462;28;104058;-77
2023/10/14 08:48:23;;;;;;;6.33;3.53;;;;;;;19.68;100.00;95954.50;4930034;28;101856;-77
2023/10/14 08:50:56;;;;;;;5.37;3.77;;;;;;;19.63;100.00;95949.25;4932828;28;105757;-77
2023/10/14 08:53:30;;;;;;;6.13;3.70;;;;;;;19.57;100.00;95945.91;4929966;28;102017;-77
2023/10/14 08:55:58;;;;;;;5.93;3.80;;;;;;;19.56;100.00;95948.94;4929696;28;106001;-77
2023/10/14 08:58:31;;;;;;;7.00;3.53;;;;;;;19.57;100.00;95955.91;4929190;28;105328;-77
2023/10/14 09:01:12;;;;;;;6.13;4.10;;;;;;;19.57;100.00;95961.31;4929855;28;101985;-77
2023/10/14 09:03:54;;;;;;;6.83;4.00;;;;;;;19.65;100.00;95957.81;4929383;28;105909;-77
2023/10/14 09:06:22;;;;;;;6.67;3.93;;;;;;;19.65;100.00;95964.00;4929364;28;105294;-77
2023/10/14 09:08:54;;;;;;;4.20;3.50;;;;;;;19.65;100.00;95958.63;4929873;28;102042;-77
2023/10/14 09:11:33;;;;;;;4.63;3.87;;;;;;;19.64;100.00;95959.72;4929666;28;105456;-77
2023/10/14 09:14:10;;;;;;;4.40;3.87;;;;;;;19.61;100.00;95952.25;4932487;28;105942;-77
2023/10/14 09:16:42;;;;;;;7.60;3.93;;;;;;;19.59;100.00;95956.38;4929501;28;103835;-77
2023/10/14 09:19:09;;;;;;;5.00;3.73;;;;;;;19.60;100.00;95955.25;4928616;28;104169;-77
2023/10/14 09:21:46;;;;;;;5.37;4.20;;;;;;;19.53;100.00;95963.03;4929826;28;101902;-77
2023/10/14 09:24:22;;;;;;;7.13;3.60;;;;;;;19.54;100.00;95961.94;4929554;28;106027;-77
2023/10/14 09:26:50;;;;;;;3.50;3.20;;;;;;;19.49;100.00;95970.97;4929047;28;105908;-77
2023/10/14 09:29:25;;;;;;;5.43;2.97;;;;;;;19.48;100.00;95957.81;4929497;28;102032;-77
2023/10/14 09:31:56;;;;;;;5.47;3.20;;;;;;;19.47;100.00;95969.72;4929459;28;104909;-77
2023/10/14 09:34:30;;;;;;;5.70;2.90;;;;;;;19.48;100.00;95963.19;4928962;28;104771;-77
2023/10/14 09:37:10;;;;;;;4.33;2.80;;;;;;;19.44;100.00;95959.53;4932644;28;102067;-77
2023/10/14 09:39:42;;;;;;;6.73;3.70;;;;;;;19.44;100.00;95967.63;4928621;28;105112;-77
2023/10/14 09:42:18;;;;;;;2.90;2.57;;;;;;;19.48;100.00;95987.47;4929514;28;101986;-77
2023/10/14 09:44:47;;;;;;;3.20;2.90;;;;;;;19.52;100.00;95970.31;4929312;28;105055;-77
2023/10/14 09:47:19;;;;;;;4.13;2.87;;;;;;;19.56;100.00;95967.81;4928894;28;105396;-77
2023/10/14 09:49:54;;;;;;;5.20;2.80;;;;;;;19.57;100.00;95974.78;4929199;28;101965;-77
2023/10/14 09:52:22;;;;;;;5.10;3.00;;;;;;;19.62;100.00;95964.63;4929385;28;104356;-77
2023/10/14 09:55:01;;;;;;;2.97;2.70;;;;;;;19.63;100.00;95965.44;4928668;28;104079;-77
2023/10/14 09:57:38;;;;;;;4.53;2.70;;;;;;;19.65;100.00;95968.59;4931620;28;101928;-77
2023/10/14 10:00:11;;;;;;;2.97;2.70;;;;;;;19.65;100.00;95963.19;4935137;28;105682;-77
2023/10/14 10:02:51;;;;;;;4.13;2.40;;;;;;;19.69;100.00;95958.75;4932654;28;101820;-77
2023/10/14 10:05:28;;;;;;;2.67;2.47;;;;;;;19.67;100.00;95966.41;4932599;28;104416;-77
2023/10/14 10:08:15;;;;;;;2.77;2.50;;;;;;;19.73;100.00;95971.28;4931733;28;105158;-77
2023/10/14 10:10:54;;;;;;;4.80;2.20;;;;;;;19.73;100.00;95970.53;4932257;28;101897;-77
2023/10/14 10:13:28;;;;;;;2.90;2.40;;;;;;;19.74;100.00;95972.91;4933899;28;102616;-77
2023/10/14 10:16:05;;;;;;;6.30;2.60;;;;;;;19.83;100.00;95965.56;4931669;28;105626;-77
2023/10/14 10:19:08;;;;;;;3.07;2.40;;;;;;;19.83;100.00;95970.19;4931656;28;101919;-77
2023/10/14 10:21:40;;;;;;;3.37;2.10;;;;;;;19.81;100.00;95967.81;4932371;28;105036;-77
2023/10/14 10:24:38;;;;;;;3.17;2.30;;;;;;;19.78;100.00;95967.66;4934890;28;101983;-77
2023/10/14 10:27:20;;;;;;;2.70;2.50;;;;;;;19.77;100.00;95960.66;4932250;28;105692;-77
2023/10/14 10:30:04;;;;;;;2.70;2.33;;;;;;;19.76;100.00;95965.28;4931704;28;104103;-77
2023/10/14 10:32:35;;;;;;;3.00;2.20;;;;;;;19.79;100.00;95955.75;4933769;28;101804;-77
2023/10/14 10:35:17;;;;;;;5.10;2.60;;;;;;;19.78;100.00;95951.47;4932070;28;105114;-77
2023/10/14 10:37:53;;;;;;;4.83;1.90;;;;;;;19.78;100.00;95949.56;4932644;28;103292;-77
2023/10/14 10:40:29;;;;;;;2.20;2.00;;;;;;;19.82;100.00;95944.31;4931822;28;101969;-77
2023/10/14 10:43:05;;;;;;;5.30;2.17;;;;;;;19.80;100.00;95941.94;4932095;28;104360;-77
2023/10/14 10:45:36;;;;;;;2.57;1.83;;;;;;;19.81;100.00;95945.41;4936546;28;102885;-77
2023/10/14 10:48:06;;;;;;;4.27;2.10;;;;;;;19.83;100.00;95940.53;4931796;28;103666;-77
2023/10/14 10:50:41;;;;;;;5.97;2.17;;;;;;;19.88;100.00;95940.31;4931217;28;105248;-77
2023/10/14 10:53:31;;;;;;;2.87;1.90;;;;;;;19.88;100.00;95940.31;4931697;28;101966;-77
2023/10/14 10:56:02;;;;;;;2.57;2.00;;;;;;;19.87;100.00;95933.34;4931683;28;105874;-77
2023/10/14 10:58:33;;;;;;;2.20;1.63;;;;;;;19.89;100.00;95931.91;4930923;28;105789;-77
2023/10/14 11:01:15;;;;;;;3.10;1.67;;;;;;;19.89;100.00;95920.34;4931676;28;102127;-77
2023/10/14 11:03:46;;;;;;;3.50;1.80;;;;;;;19.83;100.00;95927.03;4931692;28;105542;-77
2023/10/14 11:06:24;;;;;;;3.53;2.10;;;;;;;19.79;100.00;95917.97;4947292;28;104236;-77
2023/10/14 11:08:52;;;;;;;2.50;1.80;;;;;;;19.74;100.00;95921.66;4933502;28;102044;-77
2023/10/14 11:11:31;;;;;;;2.87;1.90;;;;;;;19.66;100.00;95903.53;4932326;28;103057;-77
2023/10/14 11:14:26;;;;;;;4.00;1.90;;;;;;;19.63;100.00;95920.34;4931395;28;101881;-77
2023/10/14 11:17:07;;;;;;;3.43;1.93;;;;;;;19.59;100.00;95934.81;4931172;28;105501;-77
2023/10/14 11:19:46;;;;;;;3.67;2.00;;;;;;;19.57;100.00;95923.53;4929843;28;105355;-77
2023/10/14 11:22:23;;;;;;;1.97;1.77;;;;;;;19.51;100.00;95922.13;4931372;28;102362;-77
2023/10/14 11:24:58;;;;;;;2.20;1.70;;;;;;;19.49;100.00;95922.44;4931375;28;106070;-77
2023/10/14 11:27:30;;;;;;;3.57;2.07;;;;;;;19.45;100.00;95926.09;4930755;28;105545;-77
2023/10/14 11:30:10;;;;;;;2.17;1.93;;;;;;;19.43;100.00;95920.19;4931498;28;102255;-77
2023/10/14 11:32:50;;;;;;;3.33;1.80;;;;;;;19.38;100.00;95915.78;4935523;28;102542;-77
2023/10/14 11:35:31;;;;;;;3.27;1.97;;;;;;;19.34;100.00;95917.50;4931245;28;101922;-77
2023/10/14 11:38:07;;;;;;;2.50;1.90;;;;;;;19.32;100.00;95916.22;4931207;28;103965;-77
2023/10/14 11:40:42;;;;;;;3.10;1.97;;;;;;;19.32;100.00;95913.53;4931670;28;103067;-77
2023/10/14 11:43:11;;;;;;;2.73;2.13;;;;;;;19.27;100.00;95903.72;4931104;28;101877;-77
2023/10/14 11:45:52;;;;;;;2.43;2.00;;;;;;;19.27;100.00;95909.09;4930978;28;105445;-77
2023/10/14 11:48:29;;;;;;;2.73;1.77;;;;;;;19.28;100.00;95907.19;4930065;28;105080;-77
2023/10/14 11:51:00;;;;;;;2.67;1.67;;;;;;;19.30;100.00;95897.66;4930995;28;102437;-77
2023/10/14 11:53:32;;;;;;;4.20;1.70;;;;;;;19.30;100.00;95891.50;4930759;28;103854;-77
2023/10/14 11:56:01;;;;;;;2.10;1.77;;;;;;;19.34;100.00;95903.25;4933624;28;105314;-77
2023/10/14 11:58:32;;;;;;;3.47;1.73;;;;;;;19.33;100.00;95901.63;4931046;28;105822;-77
2023/10/14 12:01:03;;;;;;;3.43;2.03;;;;;;;19.29;100.00;95889.91;4929983;28;105369;-77
2023/10/14 12:03:47;;;;;;;3.00;1.83;;;;;;;19.22;100.00;95894.97;4930432;28;102057;-77
2023/10/14 12:06:18;;;;;;;2.30;1.57;;;;;;;19.21;100.00;95885.28;4930773;28;105377;-77
2023/10/14 12:08:54;;;;;;;4.30;1.70;;;;;;;19.21;100.00;95877.19;4930185;28;105693;-77
2023/10/14 12:11:41;;;;;;;2.30;1.50;;;;;;;19.24;100.00;95879.28;4930427;28;102391;-77
2023/10/14 12:14:26;;;;;;;1.80;1.57;;;;;;;19.32;100.00;95865.00;4930368;28;104532;-77
2023/10/14 12:17:04;;;;;;;1.90;1.70;;;;;;;19.38;100.00;95867.22;4929888;28;104861;-77
2023/10/14 12:19:47;;;;;;;2.07;1.50;;;;;;;19.48;100.00;95858.81;4932652;28;101976;-77
2023/10/14 12:22:24;;;;;;;3.00;1.57;;;;;;;19.63;100.00;95861.00;4929964;28;105186;-77
2023/10/14 12:24:59;;;;;;;3.23;1.57;;;;;;;19.63;100.00;95863.69;4932071;28;101860;-77
2023/10/14 12:27:28;;;;;;;3.00;1.80;;;;;;;19.85;100.00;95857.31;4930641;28;104144;-77
2023/10/14 12:30:28;;;;;;;2.23;1.70;;;;;;;19.88;100.00;95846.69;4929732;28;106196;-77
2023/10/14 12:33:18;;;;;;;2.90;1.70;;;;;;;19.97;100.00;95857.44;4930181;28;101944;-77